createdAt,value
2019-01-23T00:03:53.205Z,-0.47
2019-01-23T00:09:05.172Z,-0.40
2019-01-23T00:14:17.166Z,-0.17
2019-01-23T00:19:27.250Z,-0.17
2019-01-23T00:24:36.429Z,-0.03
2019-01-23T00:29:49.202Z,-0.15
2019-01-23T00:34:59.224Z,-0.14
2019-01-23T00:40:11.259Z,-0.19
2019-01-23T00:45:21.015Z,0.03
2019-01-23T00:50:29.434Z,0.04
2019-01-23T00:55:41.479Z,0.12
2019-01-23T01:00:52.811Z,0.06
2019-01-23T01:06:12.291Z,-0.18
2019-01-23T01:11:19.742Z,-0.22
2019-01-23T01:16:27.947Z,-0.22
2019-01-23T01:21:37.940Z,-0.14
2019-01-23T01:26:50.637Z,-0.04
2019-01-23T01:32:02.403Z,-0.12
2019-01-23T01:37:11.787Z,-0.14
2019-01-23T01:42:20.019Z,-0.17
2019-01-23T01:47:28.597Z,-0.07
2019-01-23T01:52:37.584Z,-0.26
2019-01-23T01:57:49.489Z,-0.17
2019-01-23T02:02:57.847Z,-0.04
2019-01-23T02:08:07.476Z,-0.11
2019-01-23T02:13:17.483Z,-0.23
2019-01-23T02:18:28.526Z,-0.24
2019-01-23T02:23:41.614Z,-0.32
2019-01-23T02:28:54.616Z,-0.30
2019-01-23T02:34:05.592Z,-0.23
2019-01-23T02:39:16.630Z,-0.42
2019-01-23T02:44:30.863Z,-0.38
2019-01-23T02:49:48.157Z,-0.27
2019-01-23T02:54:55.647Z,-0.45
2019-01-23T03:00:07.724Z,-0.33
2019-01-23T03:05:17.445Z,-0.38
2019-01-23T03:10:25.658Z,-0.38
2019-01-23T03:15:39.775Z,-0.35
2019-01-23T03:20:52.599Z,-0.28
2019-01-23T03:26:10.894Z,-0.32
2019-01-23T03:31:20.216Z,-0.24
2019-01-23T03:36:33.069Z,-0.23
2019-01-23T03:41:42.189Z,-0.36
2019-01-23T03:46:58.544Z,-0.49
2019-01-23T03:52:11.429Z,-0.44
2019-01-23T03:57:24.624Z,-0.54
2019-01-23T04:02:36.465Z,-0.62
2019-01-23T04:07:48.457Z,-0.45
2019-01-23T04:12:56.931Z,-0.43
2019-01-23T04:18:07.761Z,-0.55
2019-01-23T04:23:23.237Z,-0.54
2019-01-23T04:28:33.155Z,-0.61
2019-01-23T04:33:46.788Z,-0.74
2019-01-23T04:38:58.837Z,-0.79
2019-01-23T04:44:09.678Z,-0.79
2019-01-23T04:49:21.508Z,-0.66
2019-01-23T04:54:34.355Z,-0.90
2019-01-23T05:00:05.029Z,-0.97
2019-01-23T05:05:22.254Z,-0.93
2019-01-23T05:10:34.021Z,-1.01
2019-01-23T05:15:44.891Z,-0.71
2019-01-23T05:20:54.437Z,-0.75
2019-01-23T05:26:04.373Z,-0.79
2019-01-23T05:31:13.734Z,-0.75
2019-01-23T05:37:26.187Z,-0.65
2019-01-23T05:42:36.743Z,-0.83
2019-01-23T05:47:46.624Z,-0.94
2019-01-23T05:52:56.210Z,-0.75
2019-01-23T05:58:14.989Z,-0.68
2019-01-23T06:03:27.630Z,-0.65
2019-01-23T06:08:37.048Z,-0.71
2019-01-23T06:13:50.114Z,-0.74
2019-01-23T06:18:57.590Z,-0.71
2019-01-23T06:24:12.146Z,-0.73
2019-01-23T06:29:21.659Z,-0.63
2019-01-23T06:34:38.598Z,-0.66
2019-01-23T06:39:45.012Z,-0.86
2019-01-23T06:44:58.909Z,-0.71
2019-01-23T06:50:13.063Z,-0.67
2019-01-23T06:55:27.429Z,-0.81
2019-01-23T07:00:40.687Z,-0.81
2019-01-23T07:05:48.160Z,-0.76
2019-01-23T07:10:57.326Z,-0.57
2019-01-23T07:16:09.547Z,-0.66
2019-01-23T07:21:19.796Z,-0.66
2019-01-23T07:26:37.475Z,-0.78
2019-01-23T07:31:45.351Z,-0.51
2019-01-23T07:36:58.284Z,-0.65
2019-01-23T07:42:08.971Z,-0.59
2019-01-23T07:47:23.398Z,-0.64
2019-01-23T07:52:36.148Z,-0.62
2019-01-23T07:57:45.371Z,-0.78
2019-01-23T08:02:52.819Z,-0.71
2019-01-23T08:08:03.587Z,-0.46
2019-01-23T08:13:16.701Z,-0.36
2019-01-23T08:18:25.607Z,-0.36
2019-01-23T08:23:36.781Z,-0.36
2019-01-23T08:28:45.587Z,-0.36
2019-01-23T08:33:57.345Z,-0.53
2019-01-23T08:39:09.863Z,-0.28
2019-01-23T08:44:23.373Z,-0.42
2019-01-23T08:49:34.651Z,-0.24
2019-01-23T08:54:49.142Z,-0.23
2019-01-23T09:00:01.702Z,-0.35
2019-01-23T09:05:13.896Z,-0.29
2019-01-23T09:10:22.614Z,-0.13
2019-01-23T09:15:30.725Z,-0.16
2019-01-23T09:20:41.883Z,-0.14
2019-01-23T09:25:51.608Z,-0.20
2019-01-23T09:31:13.891Z,-0.18
2019-01-23T09:36:50.613Z,-0.18
2019-01-23T09:42:26.339Z,-0.07
2019-01-23T09:47:51.522Z,0.09
2019-01-23T09:53:23.987Z,-0.24
2019-01-23T09:58:37.671Z,-0.09
2019-01-23T10:03:51.228Z,0.10
2019-01-23T10:09:03.809Z,-0.10
2019-01-23T10:14:15.014Z,-0.03
2019-01-23T10:19:29.612Z,0.02
2019-01-23T10:24:38.714Z,0.15
2019-01-23T10:29:44.820Z,0.28
2019-01-23T10:34:52.928Z,0.51
2019-01-23T10:40:01.137Z,0.27
2019-01-23T10:45:08.255Z,0.03
2019-01-23T10:50:28.062Z,0.26
2019-01-23T10:55:38.050Z,0.10
2019-01-23T11:00:53.617Z,0.25
2019-01-23T11:06:05.541Z,0.23
2019-01-23T11:11:15.710Z,0.10
2019-01-23T11:16:26.589Z,0.13
2019-01-23T11:21:36.469Z,0.49
2019-01-23T11:26:49.431Z,0.51
2019-01-23T11:32:02.179Z,0.96
2019-01-23T11:37:15.628Z,1.17
2019-01-23T11:42:28.301Z,1.46
2019-01-23T11:47:39.974Z,1.88
2019-01-23T11:52:55.298Z,2.10
2019-01-23T11:58:05.996Z,1.50
2019-01-23T12:03:22.566Z,1.06
2019-01-23T12:08:33.731Z,1.04
2019-01-23T12:13:47.298Z,1.43
2019-01-23T12:19:01.698Z,2.08
2019-01-23T12:24:10.980Z,1.93
2019-01-23T12:29:23.529Z,1.54
2019-01-23T12:34:36.964Z,1.10
2019-01-23T12:39:45.296Z,0.94
2019-01-23T12:44:54.693Z,1.06
2019-01-23T12:50:03.918Z,1.00
2019-01-23T12:55:15.367Z,1.21
2019-01-23T13:00:31.299Z,1.09
2019-01-23T13:05:42.232Z,0.98
2019-01-23T13:10:53.050Z,0.93
2019-01-23T13:16:01.288Z,0.74
2019-01-23T13:21:08.962Z,0.90
2019-01-23T13:26:18.783Z,0.75
2019-01-23T13:31:28.809Z,0.88
2019-01-23T13:36:39.139Z,0.84
2019-01-23T13:41:48.070Z,0.76
2019-01-23T13:46:59.822Z,0.76
2019-01-23T13:52:09.456Z,0.89
2019-01-23T13:57:21.803Z,0.78
2019-01-23T14:02:29.268Z,0.99
2019-01-23T14:07:43.053Z,0.86
2019-01-23T14:12:56.380Z,0.67
2019-01-23T14:18:10.150Z,0.87
2019-01-23T14:23:21.288Z,0.87
2019-01-23T14:28:31.226Z,0.74
2019-01-23T14:33:42.290Z,0.73
2019-01-23T14:38:49.860Z,0.97
2019-01-23T14:44:06.032Z,0.81
2019-01-23T14:49:15.047Z,0.81
2019-01-23T14:54:20.956Z,0.86
2019-01-23T14:59:31.209Z,0.57
2019-01-23T15:04:40.186Z,0.51
2019-01-23T15:09:51.068Z,0.46
2019-01-23T15:14:58.385Z,0.36
2019-01-23T15:20:06.893Z,0.46
2019-01-23T15:25:16.111Z,0.25
2019-01-23T15:30:28.900Z,0.34
2019-01-23T15:35:38.805Z,0.28
2019-01-23T15:40:48.625Z,0.19
2019-01-23T15:46:01.328Z,0.23
2019-01-23T15:51:09.330Z,0.36
2019-01-23T15:56:16.194Z,0.24
2019-01-23T16:01:29.352Z,0.27
2019-01-23T16:06:44.593Z,0.26
2019-01-23T16:11:57.233Z,0.33
2019-01-23T16:17:07.051Z,0.06
2019-01-23T16:22:14.356Z,-0.01
2019-01-23T16:27:21.982Z,-0.18
2019-01-23T16:32:35.538Z,0.00
2019-01-23T16:37:43.477Z,-0.07
2019-01-23T16:43:03.258Z,-0.08
2019-01-23T16:48:11.896Z,0.07
2019-01-23T16:53:24.777Z,-0.15
2019-01-23T16:58:35.612Z,-0.16
2019-01-23T17:03:46.373Z,-0.26
2019-01-23T17:08:56.147Z,-0.36
2019-01-23T17:14:11.462Z,-0.24
2019-01-23T17:19:21.323Z,-0.34
2019-01-23T17:24:32.079Z,-0.44
2019-01-23T17:29:49.892Z,-0.47
2019-01-23T17:35:01.683Z,-0.60
2019-01-23T17:40:17.482Z,-0.55
2019-01-23T17:45:48.329Z,-0.44
2019-01-23T17:51:04.074Z,-0.44
2019-01-23T17:56:16.454Z,-0.52
2019-01-23T18:01:24.883Z,-0.50
2019-01-23T18:06:34.790Z,-0.70
2019-01-23T18:11:49.029Z,-0.61
2019-01-23T18:17:06.886Z,-0.54
2019-01-23T18:22:19.594Z,-0.51
2019-01-23T18:27:30.048Z,-0.55
2019-01-23T18:32:41.355Z,-0.45
2019-01-23T18:38:36.717Z,-0.58
2019-01-23T18:44:38.630Z,-0.73
2019-01-23T18:50:25.062Z,-0.86
2019-01-23T18:55:39.172Z,-0.72
2019-01-23T19:00:47.774Z,-0.84
2019-01-23T19:05:58.550Z,-0.83
2019-01-23T19:11:31.527Z,-0.88
2019-01-23T19:16:42.451Z,-0.68
2019-01-23T19:21:55.883Z,-0.75
2019-01-23T19:27:05.764Z,-0.88
2019-01-23T19:37:24.268Z,-1.19
2019-01-23T19:42:34.670Z,-0.97
2019-01-23T19:47:45.474Z,-1.15
2019-01-23T19:52:55.315Z,-1.23
2019-01-23T19:58:15.187Z,-1.31
2019-01-23T20:03:25.480Z,-1.27
2019-01-23T20:08:36.029Z,-1.22
2019-01-23T20:13:44.152Z,-1.15
2019-01-23T20:18:53.328Z,-1.20
2019-01-23T20:24:08.452Z,-0.90
2019-01-23T20:29:18.618Z,-0.98
2019-01-23T20:34:29.423Z,-1.03
2019-01-23T20:39:37.129Z,-1.10
2019-01-23T20:44:51.353Z,-1.30
2019-01-23T20:50:01.385Z,-1.25
2019-01-23T20:55:09.651Z,-1.12
2019-01-23T21:00:21.124Z,-1.07
2019-01-23T21:05:34.632Z,-1.05
2019-01-23T21:10:46.726Z,-0.96
2019-01-23T21:15:56.091Z,-0.88
2019-01-23T21:21:03.836Z,-0.86
2019-01-23T21:26:12.882Z,-1.00
2019-01-23T21:31:21.093Z,-1.25
2019-01-23T21:36:30.088Z,-1.35
2019-01-23T21:41:42.681Z,-1.17
2019-01-23T21:46:54.414Z,-1.12
2019-01-23T21:52:07.524Z,-1.30
2019-01-23T21:57:16.014Z,-1.30
2019-01-23T22:02:25.963Z,-1.32
2019-01-23T22:07:33.503Z,-1.30
2019-01-23T22:12:41.531Z,-1.47
2019-01-23T22:17:52.309Z,-1.28
2019-01-23T22:23:01.921Z,-1.01
2019-01-23T22:28:11.914Z,-1.33
2019-01-23T22:33:23.567Z,-1.31
2019-01-23T22:38:35.820Z,-1.03
2019-01-23T22:43:49.933Z,-1.02
2019-01-23T22:49:02.608Z,-1.15
2019-01-23T22:54:12.427Z,-1.21
2019-01-23T22:59:21.427Z,-0.99
2019-01-23T23:04:33.159Z,-0.99
2019-01-23T23:09:42.613Z,-1.12
2019-01-23T23:14:50.697Z,-1.12
2019-01-23T23:20:16.841Z,-1.17
2019-01-23T23:25:24.691Z,-1.05
2019-01-23T23:30:34.549Z,-1.09
2019-01-23T23:35:48.964Z,-1.16
2019-01-23T23:41:02.000Z,-0.86
2019-01-23T23:46:13.581Z,-0.93
2019-01-23T23:51:23.464Z,-0.93
2019-01-23T23:56:34.403Z,-0.95
